createdAt,value
2023-01-23T00:00:34.075Z,100045.49
2023-01-23T00:02:51.551Z,100040.80
2023-01-23T00:04:57.383Z,100041.98
2023-01-23T00:07:00.274Z,100040.21
2023-01-23T00:09:03.150Z,100039.77
2023-01-23T00:11:07.646Z,100038.02
2023-01-23T00:13:10.566Z,100036.34
2023-01-23T00:15:16.171Z,100033.17
2023-01-23T00:17:18.867Z,100029.95
2023-01-23T00:19:21.507Z,100036.63
2023-01-23T00:21:27.237Z,100038.48
2023-01-23T00:23:30.084Z,100038.29
2023-01-23T00:25:35.980Z,100039.27
2023-01-23T00:27:38.825Z,100036.77
2023-01-23T00:29:42.001Z,100038.23
2023-01-23T00:31:45.709Z,100036.54
2023-01-23T00:33:48.493Z,100036.76
2023-01-23T00:35:55.225Z,100037.30
2023-01-23T00:37:58.009Z,100041.14
2023-01-23T00:40:00.740Z,100041.98
2023-01-23T00:42:03.461Z,100044.38
2023-01-23T00:44:07.311Z,100047.10
2023-01-23T00:46:10.220Z,100058.50
2023-01-23T00:48:13.298Z,100056.21
2023-01-23T00:50:16.237Z,100061.80
2023-01-23T00:52:18.958Z,100067.17
2023-01-23T00:54:25.913Z,100065.07
2023-01-23T00:56:30.548Z,100070.13
2023-01-23T00:58:33.209Z,100069.95
2023-01-23T01:00:38.276Z,100072.38
2023-01-23T01:02:40.940Z,100077.34
2023-01-23T01:04:44.818Z,100078.75
2023-01-23T01:06:47.826Z,100084.56
2023-01-23T01:08:52.161Z,100088.09
2023-01-23T01:10:54.787Z,100091.64
2023-01-23T01:12:58.554Z,100089.98
2023-01-23T01:15:02.459Z,100089.46
2023-01-23T01:17:07.159Z,100092.55
2023-01-23T01:19:10.257Z,100089.77
2023-01-23T01:21:14.776Z,100088.45
2023-01-23T01:23:17.661Z,100091.02
2023-01-23T01:25:21.803Z,100092.95
2023-01-23T01:27:24.733Z,100093.09
2023-01-23T01:29:27.341Z,100094.92
2023-01-23T01:31:30.209Z,100096.84
2023-01-23T01:33:34.607Z,100097.66
2023-01-23T01:35:40.279Z,100102.29
2023-01-23T01:37:43.565Z,100105.75
2023-01-23T01:39:46.177Z,100104.71
2023-01-23T01:41:48.841Z,100106.75
2023-01-23T01:43:53.419Z,100110.65
2023-01-23T01:46:16.670Z,100105.80
2023-01-23T01:48:21.792Z,100109.24
2023-01-23T01:50:25.478Z,100112.90
2023-01-23T01:52:29.537Z,100109.53
2023-01-23T01:54:53.099Z,100120.00
2023-01-23T01:57:03.844Z,100117.34
2023-01-23T01:59:12.059Z,100118.27
2023-01-23T02:01:14.820Z,100115.80
2023-01-23T02:03:19.437Z,100120.55
2023-01-23T02:05:27.066Z,100119.02
2023-01-23T02:07:44.505Z,100119.15
2023-01-23T02:09:49.093Z,100118.63
2023-01-23T02:11:51.985Z,100119.34
2023-01-23T02:13:56.984Z,100127.38
2023-01-23T02:16:02.195Z,100127.91
2023-01-23T02:18:05.409Z,100129.63
2023-01-23T02:20:23.746Z,100133.68
2023-01-23T02:22:26.416Z,100129.77
2023-01-23T02:24:37.537Z,100129.22
2023-01-23T02:26:44.016Z,100134.80
2023-01-23T02:28:55.994Z,100134.79
2023-01-23T02:31:05.713Z,100134.94
2023-01-23T02:33:20.599Z,100132.14
2023-01-23T02:35:30.719Z,100134.45
2023-01-23T02:37:42.532Z,100139.10
2023-01-23T02:39:47.741Z,100136.73
2023-01-23T02:41:52.859Z,100141.66
2023-01-23T02:44:00.863Z,100144.11
2023-01-23T02:46:06.363Z,100141.92
2023-01-23T02:48:10.147Z,100144.27
2023-01-23T02:50:13.034Z,100142.91
2023-01-23T02:52:15.969Z,100145.05
2023-01-23T02:54:20.769Z,100147.89
2023-01-23T02:56:23.501Z,100141.57
2023-01-23T02:58:45.241Z,100142.17
2023-01-23T03:00:48.325Z,100138.23
2023-01-23T03:02:51.950Z,100141.48
2023-01-23T03:04:54.716Z,100141.30
2023-01-23T03:07:01.707Z,100140.50
2023-01-23T03:09:14.362Z,100142.41
2023-01-23T03:11:21.314Z,100146.36
2023-01-23T03:13:24.066Z,100147.88
2023-01-23T03:15:26.976Z,100145.74
2023-01-23T03:17:30.187Z,100150.11
2023-01-23T03:19:35.831Z,100148.20
2023-01-23T03:21:40.519Z,100150.34
2023-01-23T03:23:47.026Z,100150.61
2023-01-23T03:25:58.395Z,100148.45
2023-01-23T03:28:27.623Z,100148.66
2023-01-23T03:30:30.689Z,100144.48
2023-01-23T03:32:33.874Z,100147.09
2023-01-23T03:34:37.146Z,100146.52
2023-01-23T03:36:41.244Z,100148.61
2023-01-23T03:39:03.910Z,100145.16
2023-01-23T03:41:25.007Z,100137.93
2023-01-23T03:43:32.183Z,100132.19
2023-01-23T03:45:35.330Z,100127.99
2023-01-23T03:47:38.383Z,100131.58
2023-01-23T03:49:41.698Z,100134.45
2023-01-23T03:51:44.488Z,100129.09
2023-01-23T03:53:47.257Z,100120.66
2023-01-23T03:55:50.080Z,100116.83
2023-01-23T03:57:53.094Z,100115.64
2023-01-23T04:00:07.618Z,100112.92
2023-01-23T04:02:23.151Z,100104.36
2023-01-23T04:04:26.389Z,100102.23
2023-01-23T04:06:29.649Z,100101.18
2023-01-23T04:08:33.650Z,100105.46
2023-01-23T04:10:36.439Z,100105.86
2023-01-23T04:12:45.456Z,100109.71
2023-01-23T04:14:48.723Z,100112.33
2023-01-23T04:16:52.455Z,100115.27
2023-01-23T04:18:55.449Z,100126.43
2023-01-23T04:20:59.077Z,100128.77
2023-01-23T04:23:02.165Z,100132.73
2023-01-23T04:25:06.680Z,100128.48
2023-01-23T04:27:09.332Z,100132.86
2023-01-23T04:29:12.363Z,100134.78
2023-01-23T04:31:15.272Z,100139.50
2023-01-23T04:33:19.832Z,100138.86
2023-01-23T04:35:25.235Z,100143.31
2023-01-23T04:37:28.149Z,100146.30
2023-01-23T04:39:32.050Z,100147.16
2023-01-23T04:41:35.064Z,100144.95
2023-01-23T04:43:41.354Z,100149.07
2023-01-23T04:45:45.629Z,100152.56
2023-01-23T04:47:57.269Z,100155.46
2023-01-23T04:50:00.899Z,100162.10
2023-01-23T04:52:05.423Z,100167.48
2023-01-23T04:54:12.192Z,100167.70
2023-01-23T04:56:15.040Z,100168.38
2023-01-23T04:58:19.550Z,100171.73
2023-01-23T05:00:23.329Z,100173.98
2023-01-23T05:02:28.588Z,100173.64
2023-01-23T05:04:32.899Z,100175.60
2023-01-23T05:06:36.296Z,100177.35
2023-01-23T05:08:39.708Z,100178.90
2023-01-23T05:10:50.690Z,100182.57
2023-01-23T05:12:54.233Z,100185.05
2023-01-23T05:14:57.733Z,100182.86
2023-01-23T05:17:01.154Z,100189.48
2023-01-23T05:19:15.010Z,100186.32
2023-01-23T05:21:17.876Z,100187.03
2023-01-23T05:23:20.679Z,100185.67
2023-01-23T05:25:31.513Z,100191.46
2023-01-23T05:27:34.314Z,100192.80
2023-01-23T05:29:37.304Z,100197.46
2023-01-23T05:31:46.586Z,100198.98
2023-01-23T05:34:12.620Z,100205.73
2023-01-23T05:36:18.662Z,100205.67
2023-01-23T05:38:23.160Z,100213.77
2023-01-23T05:40:26.173Z,100208.95
2023-01-23T05:42:53.523Z,100213.00
2023-01-23T05:45:17.709Z,100215.70
2023-01-23T05:47:20.541Z,100222.85
2023-01-23T05:49:24.603Z,100218.30
2023-01-23T05:51:32.455Z,100217.47
2023-01-23T05:53:35.736Z,100219.02
2023-01-23T05:55:39.293Z,100217.37
2023-01-23T05:57:42.702Z,100219.98
2023-01-23T06:00:06.551Z,100227.77
2023-01-23T06:02:18.607Z,100224.04
2023-01-23T06:04:37.496Z,100223.20
2023-01-23T06:06:51.586Z,100227.73
2023-01-23T06:08:54.965Z,100225.89
2023-01-23T06:10:58.891Z,100227.73
2023-01-23T06:13:01.647Z,100229.92
2023-01-23T06:15:06.725Z,100233.52
2023-01-23T06:17:12.483Z,100234.49
2023-01-23T06:19:15.697Z,100238.16
2023-01-23T06:21:18.706Z,100238.05
2023-01-23T06:23:21.472Z,100241.41
2023-01-23T06:25:24.796Z,100241.17
2023-01-23T06:27:28.317Z,100243.27
2023-01-23T06:29:31.900Z,100249.70
2023-01-23T06:31:35.175Z,100248.29
2023-01-23T06:33:39.044Z,100252.77
2023-01-23T06:35:43.892Z,100257.17
2023-01-23T06:37:46.551Z,100259.12
2023-01-23T06:39:51.962Z,100261.33
2023-01-23T06:41:56.888Z,100264.46
2023-01-23T06:44:00.181Z,100269.33
2023-01-23T06:46:03.632Z,100275.16
2023-01-23T06:48:06.766Z,100276.35
2023-01-23T06:50:09.899Z,100278.45
2023-01-23T06:52:13.698Z,100287.02
2023-01-23T06:54:18.361Z,100286.59
2023-01-23T06:56:21.529Z,100290.83
2023-01-23T06:58:24.775Z,100293.15
2023-01-23T07:00:28.477Z,100292.44
2023-01-23T07:02:31.671Z,100300.05
2023-01-23T07:04:35.125Z,100299.71
2023-01-23T07:06:37.993Z,100305.73
2023-01-23T07:08:41.280Z,100310.94
2023-01-23T07:10:44.036Z,100312.60
2023-01-23T07:12:46.894Z,100321.02
2023-01-23T07:14:50.142Z,100323.70
2023-01-23T07:16:57.384Z,100328.27
2023-01-23T07:19:01.610Z,100329.95
2023-01-23T07:21:07.338Z,100328.67
2023-01-23T07:23:10.512Z,100336.52
2023-01-23T07:25:13.497Z,100340.16
2023-01-23T07:27:16.652Z,100340.73
2023-01-23T07:29:19.740Z,100335.02
2023-01-23T07:31:24.074Z,100330.89
2023-01-23T07:33:27.071Z,100333.90
2023-01-23T07:35:30.003Z,100333.68
2023-01-23T07:37:40.681Z,100334.87
2023-01-23T07:39:43.756Z,100341.95
2023-01-23T07:41:49.341Z,100344.03
2023-01-23T07:43:52.381Z,100348.92
2023-01-23T07:45:55.069Z,100346.39
2023-01-23T07:47:57.829Z,100351.06
2023-01-23T07:50:00.697Z,100356.11
2023-01-23T07:52:04.461Z,100356.89
2023-01-23T07:54:07.998Z,100361.15
2023-01-23T07:56:11.634Z,100357.66
2023-01-23T07:58:16.817Z,100353.70
2023-01-23T08:00:21.688Z,100353.22
2023-01-23T08:02:25.913Z,100348.83
2023-01-23T08:04:28.652Z,100342.08
2023-01-23T08:06:31.603Z,100341.79
2023-01-23T08:08:34.647Z,100340.38
2023-01-23T08:10:37.331Z,100337.42
2023-01-23T08:12:40.410Z,100337.43
2023-01-23T08:14:43.604Z,100335.40
2023-01-23T08:16:51.511Z,100335.23
2023-01-23T08:18:54.653Z,100335.21
2023-01-23T08:21:00.721Z,100335.33
2023-01-23T08:23:03.683Z,100336.92
2023-01-23T08:25:11.060Z,100336.60
2023-01-23T08:27:14.228Z,100337.77
2023-01-23T08:29:17.220Z,100336.77
2023-01-23T08:31:20.277Z,100338.66
2023-01-23T08:33:23.264Z,100338.86
2023-01-23T08:35:25.976Z,100338.94
2023-01-23T08:37:28.703Z,100338.17
2023-01-23T08:39:32.105Z,100341.08
2023-01-23T08:41:34.743Z,100332.84
2023-01-23T08:43:38.937Z,100334.30
2023-01-23T08:45:43.486Z,100337.31
2023-01-23T08:47:46.672Z,100340.67
2023-01-23T08:49:49.760Z,100338.91
2023-01-23T08:51:53.511Z,100338.80
2023-01-23T08:53:56.955Z,100333.21
2023-01-23T08:56:05.970Z,100332.70
2023-01-23T08:58:13.210Z,100331.32
2023-01-23T09:00:16.216Z,100327.74
2023-01-23T09:02:19.309Z,100325.27
2023-01-23T09:04:22.261Z,100328.33
2023-01-23T09:06:27.528Z,100326.80
2023-01-23T09:08:30.182Z,100330.52
2023-01-23T09:10:33.895Z,100333.73
2023-01-23T09:12:36.837Z,100333.88
2023-01-23T09:14:39.564Z,100332.25
2023-01-23T09:16:47.008Z,100328.28
2023-01-23T09:18:50.748Z,100334.54
2023-01-23T09:20:55.688Z,100332.78
2023-01-23T09:22:58.326Z,100333.73
2023-01-23T09:25:01.102Z,100328.65
2023-01-23T09:27:03.816Z,100329.63
2023-01-23T09:29:06.937Z,100327.01
2023-01-23T09:31:13.051Z,100326.45
2023-01-23T09:33:17.172Z,100324.49
2023-01-23T09:35:20.193Z,100330.12
2023-01-23T09:37:23.408Z,100334.86
2023-01-23T09:39:26.176Z,100337.30
2023-01-23T09:41:30.257Z,100343.74
2023-01-23T09:43:32.947Z,100349.09
2023-01-23T09:45:39.738Z,100348.52
2023-01-23T09:47:55.261Z,100348.68
2023-01-23T09:50:03.305Z,100344.48
2023-01-23T09:52:16.764Z,100347.94
2023-01-23T09:54:44.610Z,100351.10
2023-01-23T09:56:48.646Z,100352.34
2023-01-23T09:59:03.725Z,100349.27
2023-01-23T10:01:12.422Z,100348.29
2023-01-23T10:03:16.729Z,100351.71
2023-01-23T10:05:52.101Z,100351.64
2023-01-23T10:08:15.136Z,100346.79
2023-01-23T10:10:33.594Z,100348.38
2023-01-23T10:12:49.473Z,100346.52
2023-01-23T10:15:14.267Z,100346.34
2023-01-23T10:17:27.812Z,100345.51
2023-01-23T10:19:46.422Z,100348.19
2023-01-23T10:21:57.381Z,100353.40
2023-01-23T10:24:24.780Z,100350.64
2023-01-23T10:26:33.041Z,100343.58
2023-01-23T10:28:40.360Z,100340.56
2023-01-23T10:30:49.455Z,100346.45
2023-01-23T10:33:01.172Z,100347.52
2023-01-23T10:35:12.461Z,100342.64
2023-01-23T10:37:37.286Z,100339.58
2023-01-23T10:40:39.065Z,100338.60
2023-01-23T10:42:42.317Z,100342.35
2023-01-23T10:44:45.245Z,100339.65
2023-01-23T10:47:02.136Z,100338.29
2023-01-23T10:49:06.920Z,100337.84
2023-01-23T10:51:37.587Z,100340.39
2023-01-23T10:53:40.506Z,100337.61
2023-01-23T10:55:46.029Z,100334.02
2023-01-23T10:57:52.870Z,100328.04
2023-01-23T11:00:04.978Z,100326.32
2023-01-23T11:02:14.079Z,100324.77
2023-01-23T11:04:23.780Z,100323.33
2023-01-23T11:06:27.439Z,100325.79
2023-01-23T11:08:51.596Z,100328.69
2023-01-23T11:11:11.620Z,100324.80
2023-01-23T11:13:30.722Z,100319.52
2023-01-23T11:15:34.118Z,100318.86
2023-01-23T11:17:37.879Z,100316.13
2023-01-23T11:19:43.439Z,100313.77
2023-01-23T11:21:56.891Z,100312.05
2023-01-23T11:24:08.535Z,100316.16
2023-01-23T11:26:31.206Z,100314.98
2023-01-23T11:28:47.111Z,100312.48
2023-01-23T11:31:16.795Z,100312.75
2023-01-23T11:33:25.630Z,100309.95
2023-01-23T11:35:50.131Z,100310.17
2023-01-23T11:37:55.815Z,100307.27
2023-01-23T11:40:08.271Z,100302.02
2023-01-23T11:42:13.101Z,100305.09
2023-01-23T11:44:19.330Z,100299.05
2023-01-23T11:46:34.996Z,100296.20
2023-01-23T11:48:56.162Z,100291.48
2023-01-23T11:51:26.483Z,100287.92
2023-01-23T11:53:42.951Z,100279.27
2023-01-23T11:56:02.078Z,100281.81
2023-01-23T11:58:17.557Z,100280.95
2023-01-23T12:01:02.584Z,100278.75
2023-01-23T12:03:27.230Z,100269.27
2023-01-23T12:06:17.611Z,100266.46
2023-01-23T12:08:52.552Z,100256.39
2023-01-23T12:11:14.185Z,100253.56
2023-01-23T12:13:44.934Z,100251.04
2023-01-23T12:16:34.291Z,100252.70
2023-01-23T12:18:51.172Z,100255.28
2023-01-23T12:21:19.811Z,100255.00
2023-01-23T12:23:56.146Z,100247.97
2023-01-23T12:26:11.989Z,100240.14
2023-01-23T12:28:28.727Z,100234.30
2023-01-23T12:30:53.504Z,100231.31
2023-01-23T12:33:09.142Z,100234.27
2023-01-23T12:35:20.578Z,100233.91
2023-01-23T12:37:33.203Z,100234.89
2023-01-23T12:39:55.119Z,100237.50
2023-01-23T12:42:04.526Z,100233.77
2023-01-23T12:44:33.019Z,100232.84
2023-01-23T12:46:59.972Z,100236.80
2023-01-23T12:49:26.780Z,100235.14
2023-01-23T12:51:38.653Z,100234.09
2023-01-23T12:53:44.173Z,100232.12
2023-01-23T12:55:56.567Z,100228.55
2023-01-23T12:58:09.077Z,100223.74
2023-01-23T13:00:32.262Z,100219.71
2023-01-23T13:02:47.400Z,100218.91
2023-01-23T13:05:21.110Z,100217.13
2023-01-23T13:07:56.269Z,100222.61
2023-01-23T13:10:59.702Z,100224.20
2023-01-23T13:13:02.391Z,100223.14
2023-01-23T13:15:20.662Z,100223.59
2023-01-23T13:17:39.451Z,100225.21
2023-01-23T13:20:01.129Z,100224.19
2023-01-23T13:22:18.934Z,100227.98
2023-01-23T13:25:12.644Z,100227.11
2023-01-23T13:27:40.935Z,100224.47
2023-01-23T13:29:53.199Z,100225.89
2023-01-23T13:32:25.850Z,100227.06
2023-01-23T13:34:31.644Z,100224.17
2023-01-23T13:36:35.852Z,100227.91
2023-01-23T13:38:40.951Z,100213.23
2023-01-23T13:41:14.549Z,100211.45
2023-01-23T13:43:42.765Z,100216.02
2023-01-23T13:45:48.129Z,100212.68
2023-01-23T14:22:20.540Z,100195.45
2023-01-23T14:24:29.155Z,100197.93
2023-01-23T14:26:35.471Z,100199.30
2023-01-23T14:28:40.012Z,100198.90
2023-01-23T14:30:56.842Z,100197.63
2023-01-23T14:32:59.824Z,100196.75
2023-01-23T14:35:02.603Z,100199.83
2023-01-23T14:37:12.296Z,100199.80
2023-01-23T14:39:21.417Z,100196.62
2023-01-23T14:41:31.701Z,100195.23
2023-01-23T14:43:37.064Z,100196.89
2023-01-23T14:45:40.264Z,100197.16
2023-01-23T14:47:48.959Z,100196.38
2023-01-23T14:49:56.863Z,100193.52
2023-01-23T14:52:03.328Z,100199.58
2023-01-23T14:54:20.416Z,100193.83
2023-01-23T14:56:29.789Z,100188.36
2023-01-23T14:58:33.164Z,100187.64
2023-01-23T15:00:36.292Z,100186.54
2023-01-23T15:02:39.386Z,100186.45
2023-01-23T15:04:42.169Z,100189.70
2023-01-23T15:06:51.883Z,100187.02
2023-01-23T15:09:04.638Z,100186.58
2023-01-23T15:11:11.979Z,100185.94
2023-01-23T15:13:27.961Z,100184.50
2023-01-23T15:15:34.738Z,100185.60
2023-01-23T15:17:39.041Z,100190.67
2023-01-23T15:19:41.956Z,100194.49
2023-01-23T15:21:47.453Z,100195.48
2023-01-23T15:24:06.994Z,100193.38
2023-01-23T15:26:39.034Z,100190.83
2023-01-23T15:29:11.251Z,100190.84
2023-01-23T15:31:30.237Z,100189.50
2023-01-23T15:33:40.394Z,100191.96
2023-01-23T15:35:43.131Z,100190.92
2023-01-23T15:37:49.859Z,100190.28
2023-01-23T15:39:52.692Z,100192.14
2023-01-23T15:42:11.916Z,100198.10
2023-01-23T15:44:20.137Z,100198.56
2023-01-23T15:46:22.996Z,100198.63
2023-01-23T15:48:25.782Z,100199.79
2023-01-23T15:50:29.167Z,100209.85
2023-01-23T15:52:53.329Z,100216.05
2023-01-23T15:55:03.460Z,100214.63
2023-01-23T15:57:08.225Z,100208.81
2023-01-23T15:59:19.592Z,100205.12
2023-01-23T16:01:22.584Z,100206.97
2023-01-23T16:03:25.308Z,100216.84
2023-01-23T16:05:35.787Z,100217.16
2023-01-23T16:07:41.180Z,100226.45
2023-01-23T16:09:47.332Z,100227.64
2023-01-23T16:11:50.934Z,100231.81
2023-01-23T16:13:53.713Z,100240.32
2023-01-23T16:15:58.051Z,100243.45
2023-01-23T16:18:04.574Z,100236.69
2023-01-23T16:20:17.163Z,100245.39
2023-01-23T16:22:26.392Z,100249.62
2023-01-23T16:24:33.678Z,100254.55
2023-01-23T16:26:42.368Z,100259.16
2023-01-23T16:28:45.321Z,100260.60
2023-01-23T16:30:50.828Z,100262.23
2023-01-23T16:32:56.224Z,100264.01
2023-01-23T16:35:00.861Z,100268.73
2023-01-23T16:37:03.917Z,100270.47
2023-01-23T16:39:07.013Z,100274.63
2023-01-23T16:41:09.853Z,100281.03
2023-01-23T16:43:14.130Z,100289.45
2023-01-23T16:45:25.866Z,100289.90
2023-01-23T16:47:30.721Z,100288.75
2023-01-23T16:49:50.980Z,100286.10
2023-01-23T16:52:01.528Z,100295.15
2023-01-23T16:54:17.590Z,100293.58
2023-01-23T16:56:24.767Z,100295.69
2023-01-23T16:58:29.417Z,100302.67
2023-01-23T17:00:34.968Z,100306.95
2023-01-23T17:02:38.971Z,100308.83
2023-01-23T17:04:41.992Z,100308.13
2023-01-23T17:06:44.858Z,100306.64
2023-01-23T17:08:48.052Z,100306.55
2023-01-23T17:10:54.400Z,100301.81
2023-01-23T17:12:57.415Z,100306.77
2023-01-23T17:15:02.541Z,100312.96
2023-01-23T17:17:12.550Z,100324.53
2023-01-23T17:19:24.138Z,100326.14
2023-01-23T17:21:33.712Z,100326.39
2023-01-23T17:23:36.392Z,100328.23
2023-01-23T17:25:59.309Z,100332.52
2023-01-23T17:28:12.928Z,100335.13
2023-01-23T17:30:23.112Z,100334.71
2023-01-23T17:32:32.714Z,100336.91
2023-01-23T17:34:45.191Z,100336.65
2023-01-23T17:36:56.530Z,100339.95
2023-01-23T17:39:00.352Z,100347.77
2023-01-23T17:41:06.228Z,100348.85
2023-01-23T17:43:12.830Z,100352.50
2023-01-23T17:45:19.618Z,100356.30
2023-01-23T17:47:26.938Z,100358.77
2023-01-23T17:49:31.960Z,100362.58
2023-01-23T17:51:35.613Z,100360.93
2023-01-23T17:53:38.551Z,100363.39
2023-01-23T17:55:46.562Z,100360.63
2023-01-23T17:57:50.095Z,100359.63
2023-01-23T17:59:55.540Z,100365.38
2023-01-23T18:01:59.446Z,100368.85
2023-01-23T18:04:03.472Z,100373.53
2023-01-23T18:06:08.258Z,100372.30
2023-01-23T18:08:16.422Z,100374.60
2023-01-23T18:10:31.873Z,100365.30
2023-01-23T18:12:58.716Z,100367.10
2023-01-23T18:15:30.215Z,100366.85
2023-01-23T18:17:50.303Z,100370.21
2023-01-23T18:19:54.093Z,100374.02
2023-01-23T18:21:57.877Z,100370.38
2023-01-23T18:24:01.374Z,100374.95
2023-01-23T18:26:18.408Z,100369.80
2023-01-23T18:28:22.774Z,100369.12
2023-01-23T18:31:02.994Z,100368.43
2023-01-23T18:33:34.282Z,100365.55
2023-01-23T18:35:52.856Z,100364.30
2023-01-23T18:38:19.105Z,100365.27
2023-01-23T18:40:43.109Z,100365.95
2023-01-23T18:42:59.950Z,100365.73
2023-01-23T18:45:10.047Z,100359.18
2023-01-23T18:47:14.871Z,100361.34
2023-01-23T18:49:32.436Z,100359.64
2023-01-23T18:51:49.742Z,100358.27
2023-01-23T18:54:12.294Z,100362.11
2023-01-23T18:56:39.309Z,100363.59
2023-01-23T18:59:11.889Z,100367.67
2023-01-23T19:01:29.012Z,100370.39
2023-01-23T19:03:43.621Z,100371.05
2023-01-23T19:05:47.223Z,100360.63
2023-01-23T19:07:50.209Z,100362.02
2023-01-23T19:09:53.249Z,100361.54
2023-01-23T19:12:25.657Z,100366.23
2023-01-23T19:14:38.499Z,100361.34
2023-01-23T19:16:48.865Z,100365.60
2023-01-23T19:19:15.225Z,100367.90
2023-01-23T19:21:33.226Z,100375.06
2023-01-23T19:23:55.821Z,100374.16
2023-01-23T19:26:00.391Z,100373.67
2023-01-23T19:28:07.575Z,100371.83
2023-01-23T19:30:12.402Z,100373.34
2023-01-23T19:32:16.355Z,100373.85
2023-01-23T19:34:28.288Z,100373.98
2023-01-23T19:36:36.957Z,100373.23
2023-01-23T19:38:42.779Z,100374.41
2023-01-23T19:40:46.781Z,100376.04
2023-01-23T19:43:05.708Z,100375.88
2023-01-23T19:45:19.349Z,100382.79
2023-01-23T19:47:23.576Z,100382.19
2023-01-23T19:49:27.104Z,100384.98
2023-01-23T19:51:34.217Z,100378.88
2023-01-23T19:53:40.415Z,100382.90
2023-01-23T19:55:43.788Z,100382.42
2023-01-23T19:57:48.471Z,100376.80
2023-01-23T19:59:55.571Z,100383.37
2023-01-23T20:02:00.846Z,100388.80
2023-01-23T20:04:20.773Z,100383.81
2023-01-23T20:06:24.092Z,100381.06
2023-01-23T20:08:27.468Z,100379.83
2023-01-23T20:10:30.855Z,100373.16
2023-01-23T20:12:52.011Z,100373.41
2023-01-23T20:15:02.306Z,100381.61
2023-01-23T20:17:06.640Z,100383.33
2023-01-23T20:19:14.339Z,100384.30
2023-01-23T20:21:20.074Z,100390.27
2023-01-23T20:23:23.415Z,100393.79
2023-01-23T20:25:28.421Z,100394.48
2023-01-23T20:27:31.629Z,100395.30
2023-01-23T20:29:34.543Z,100397.98
2023-01-23T20:31:40.558Z,100399.39
2023-01-23T20:33:44.241Z,100397.48
2023-01-23T20:35:51.738Z,100394.27
2023-01-23T20:37:58.330Z,100392.80
2023-01-23T20:40:11.774Z,100394.36
2023-01-23T20:42:15.732Z,100397.27
2023-01-23T20:44:19.078Z,100395.36
2023-01-23T20:46:22.010Z,100394.48
2023-01-23T20:48:25.941Z,100397.48
2023-01-23T20:50:29.428Z,100403.92
2023-01-23T20:52:55.192Z,100408.83
2023-01-23T20:54:59.530Z,100404.77
2023-01-23T20:57:06.500Z,100397.98
2023-01-23T20:59:22.135Z,100397.80
2023-01-23T21:01:28.901Z,100397.02
2023-01-23T21:03:31.948Z,100401.77
2023-01-23T21:05:34.899Z,100395.32
2023-01-23T21:07:38.050Z,100395.36
2023-01-23T21:09:45.453Z,100391.17
2023-01-23T21:11:51.302Z,100392.02
2023-01-23T21:13:55.860Z,100396.84
2023-01-23T21:16:02.545Z,100399.72
2023-01-23T21:18:05.776Z,100397.20
2023-01-23T21:20:10.366Z,100395.64
2023-01-23T21:22:15.574Z,100393.05
2023-01-23T21:24:22.211Z,100397.38
2023-01-23T21:26:27.108Z,100400.65
2023-01-23T21:28:31.741Z,100396.85
2023-01-23T21:30:39.027Z,100400.23
2023-01-23T21:32:42.573Z,100400.80
2023-01-23T21:34:45.279Z,100398.27
2023-01-23T21:36:48.153Z,100398.60
2023-01-23T21:38:51.946Z,100400.58
2023-01-23T21:40:55.147Z,100401.85
2023-01-23T21:43:04.138Z,100404.27
2023-01-23T21:45:08.613Z,100407.66
2023-01-23T21:47:11.413Z,100406.67
2023-01-23T21:49:16.382Z,100407.30
2023-01-23T21:51:22.335Z,100397.52
2023-01-23T21:53:25.051Z,100396.52
2023-01-23T21:55:29.423Z,100394.07
2023-01-23T21:57:32.196Z,100399.09
2023-01-23T21:59:35.585Z,100402.70
2023-01-23T22:01:42.739Z,100403.95
2023-01-23T22:03:46.510Z,100406.45
2023-01-23T22:05:49.259Z,100395.65
2023-01-23T22:07:51.965Z,100399.36
2023-01-23T22:09:55.828Z,100392.73
2023-01-23T22:11:58.705Z,100399.45
2023-01-23T22:14:04.808Z,100402.38
2023-01-23T22:16:08.206Z,100397.94
2023-01-23T22:18:12.026Z,100396.90
2023-01-23T22:20:18.325Z,100395.95
2023-01-23T22:22:21.368Z,100396.73
2023-01-23T22:24:25.181Z,100397.56
2023-01-23T22:26:38.979Z,100397.02
2023-01-23T22:28:46.227Z,100396.31
2023-01-23T22:30:51.427Z,100395.27
2023-01-23T22:32:54.225Z,100398.99
2023-01-23T22:34:56.924Z,100401.27
2023-01-23T22:37:03.596Z,100404.52
2023-01-23T22:39:07.611Z,100402.35
2023-01-23T22:41:14.700Z,100401.45
2023-01-23T22:43:17.820Z,100399.86
2023-01-23T22:45:20.833Z,100399.44
2023-01-23T22:47:24.293Z,100400.05
2023-01-23T22:49:26.911Z,100398.92
2023-01-23T22:51:30.194Z,100401.67
2023-01-23T22:53:33.520Z,100403.58
2023-01-23T22:55:37.962Z,100403.54
2023-01-23T22:57:40.678Z,100404.20
2023-01-23T22:59:43.597Z,100402.81
2023-01-23T23:01:46.238Z,100401.90
2023-01-23T23:03:49.375Z,100400.95
2023-01-23T23:06:00.157Z,100400.52
2023-01-23T23:08:03.038Z,100398.56
2023-01-23T23:10:07.260Z,100399.59
2023-01-23T23:12:10.480Z,100396.07
2023-01-23T23:14:13.370Z,100397.49
2023-01-23T23:16:21.983Z,100395.90
2023-01-23T23:18:24.760Z,100395.27
2023-01-23T23:20:30.228Z,100393.58
2023-01-23T23:22:32.821Z,100395.02
2023-01-23T23:24:37.895Z,100396.75
2023-01-23T23:26:40.908Z,100396.00
2023-01-23T23:28:44.821Z,100395.59
2023-01-23T23:30:49.047Z,100390.25
2023-01-23T23:32:51.945Z,100393.13
2023-01-23T23:34:55.801Z,100392.35
2023-01-23T23:36:58.509Z,100387.80
2023-01-23T23:39:01.830Z,100390.42
2023-01-23T23:41:12.534Z,100389.98
2023-01-23T23:43:16.647Z,100389.21
2023-01-23T23:45:21.024Z,100388.06
2023-01-23T23:47:24.271Z,100383.33
2023-01-23T23:49:29.747Z,100379.73
2023-01-23T23:51:33.268Z,100380.10
2023-01-23T23:53:36.880Z,100381.16
2023-01-23T23:55:39.760Z,100379.29
2023-01-23T23:57:43.266Z,100375.61
2023-01-23T23:59:46.069Z,100379.02
